Flight Track Log - Related Links

Times and Time Zones

All times are in EDT time to prevent confusion due to time zone crossing. See the UPS1334 flight status page for this flight to view local times or setup timezone preferences in your user account.

Time Position Orientation Groundspeed Altitude Reporting Facility
EDT Latitude Longitude Course Direction KTS MPH feet Rate Location/Type
Wed 04:11:05 AM 38.0929 -85.7441 184° South 247 284 3,600  Level FlightAware ADS-B
Wed 04:12:05 AM 38.0168 -85.7519 184° South 286 329 6,800 3,411 Climbing FlightAware ADS-B
Wed 04:12:40 AM 37.9735 -85.7323 145° Southeast 302 348 9,000 3,556 Climbing FlightAware ADS-B
Wed 04:12:59 AM 37.9513 -85.7149 154° Southeast 303 349 10,000 2,327 Climbing FlightAware ADS-B
Wed 04:13:29 AM 37.9106 -85.6926 158° South 340 391 10,900 1,869 Climbing FlightAware ADS-B
Wed 04:14:00 AM 37.8660 -85.6697 156° South 375 432 11,900 1,770 Climbing FlightAware ADS-B
Wed 04:14:30 AM 37.8163 -85.6397 154° Southeast 403 464 12,700 2,100 Climbing FlightAware ADS-B
Wed 04:15:00 AM 37.7661 -85.6088 155° Southeast 418 481 14,000 2,560 Climbing FlightAware ADS-B
Wed 04:15:45 AM 37.6825 -85.5609 156° South 436 502 15,900 2,480 Climbing FlightAware ADS-B
Wed 04:16:15 AM 37.6284 -85.5305 156° South 446 513 17,100 2,500 Climbing FlightAware ADS-B
Wed 04:16:45 AM 37.5692 -85.4958 155° Southeast 451 519 18,400 2,476 Climbing FlightAware ADS-B
Wed 04:17:18 AM 37.5075 -85.4608 156° South 459 528 19,700 2,320 Climbing FlightAware ADS-B
Wed 04:18:00 AM 37.4312 -85.4179 156° South 470 541 21,300 2,138 Climbing FlightAware ADS-B
Wed 04:18:45 AM 37.3328 -85.3622 156° South 481 554 22,800 1,923 Climbing FlightAware ADS-B
Wed 04:19:18 AM 37.2684 -85.3257 156° South 492 566 23,800 1,778 Climbing FlightAware ADS-B
Wed 04:20:06 AM 37.1852 -85.2786 156° South 503 579 25,200 1,704 Climbing FlightAware ADS-B
Wed 04:20:39 AM 37.0935 -85.2269 156° South 509 586 26,100 1,417 Climbing FlightAware ADS-B
Wed 04:21:18 AM 37.0156 -85.1833 156° South 520 598 26,900 1,333 Climbing FlightAware ADS-B
Wed 04:22:18 AM 36.8747 -85.1041 156° South 534 615 28,300 1,300 Climbing FlightAware ADS-B
Wed 04:23:18 AM 36.7448 -85.0320 156° South 549 632 29,500 1,190 Climbing FlightAware ADS-B
Wed 04:24:19 AM 36.5962 -84.9492 156° South 559 643 30,700 1,350 Climbing FlightAware ADS-B
Wed 04:25:18 AM 36.4546 -84.8709 156° South 560 644 32,200 1,160 Climbing FlightAware ADS-B
Wed 04:26:18 AM 36.3120 -84.7924 156° South 567 652 33,000 516 Climbing FlightAware ADS-B
Wed 04:26:51 AM 36.2417 -84.7539 156° South 562 647 33,000  Level Indianapolis Center
Wed 04:27:51 AM 36.0972 -84.6747 156° South 562 647 33,000  Level Indianapolis Center
Wed 04:28:52 AM 35.9519 -84.5956 156° South 561 646 33,000  Level Indianapolis Center
Wed 04:29:52 AM 35.8358 -84.5325 156° South 561 646 33,000  Level Indianapolis Center
Wed 04:30:53 AM 35.6883 -84.4528 156° South 559 643 33,000  Level Indianapolis Center
Wed 04:31:53 AM 35.5497 -84.3781 156° South 558 642 33,000  Level Indianapolis Center
Wed 04:33:00 AM 35.3842 -84.2908 157° South 555 639 33,000  Level Atlanta Center
Wed 04:34:00 AM 35.2425 -84.2167 157° South 555 639 33,000  Level Atlanta Center
Wed 04:35:00 AM 35.1028 -84.1428 157° South 555 639 33,000  Level Atlanta Center
Wed 04:36:00 AM 34.9506 -84.0617 156° South 550 633 33,000  Level Atlanta Center
Wed 04:37:00 AM 34.8106 -83.9908 157° South 550 633 33,000  Level Atlanta Center
Wed 04:38:00 AM 34.6728 -83.9150 156° South 550 633 33,000  Level Atlanta Center
Wed 04:39:00 AM 34.5372 -83.8397 155° Southeast 540 621 33,000  Level Atlanta Center
Wed 04:40:00 AM 34.3992 -83.7694 157° South 540 621 33,000  Level Atlanta Center
Wed 04:41:00 AM 34.2633 -83.6969 156° South 534 615 33,000  Level Atlanta Center
Wed 04:42:00 AM 34.1253 -83.6272 157° South 539 620 33,000  Level Atlanta Center
Wed 04:43:00 AM 34.0167 -83.5728 157° South 539 620 33,000  Level Atlanta Center
Wed 04:44:00 AM 33.8703 -83.4958 156° South 539 620 33,000  Level Atlanta Center
Wed 04:45:00 AM 33.7342 -83.4269 157° South 534 615 33,000  Level Atlanta Center
Wed 04:46:00 AM 33.5961 -83.3581 157° South 534 615 33,000  Level Atlanta Center
Wed 04:47:00 AM 33.4642 -83.2917 157° South 534 615 33,000  Level Atlanta Center
Wed 04:48:00 AM 33.3303 -83.2208 156° South 534 615 33,000  Level Atlanta Center
Wed 04:49:00 AM 33.1961 -83.1525 157° South 534 615 33,000  Level Atlanta Center
Wed 04:51:03 AM 32.9139 -83.0164 158° South 515 593 33,000  Level Jacksonville Center
Wed 04:52:03 AM 32.7803 -82.9444 156° South 520 598 33,000  Level Jacksonville Center
Wed 04:53:03 AM 32.6447 -82.8803 158° South 515 593 33,000  Level Jacksonville Center
Wed 04:54:03 AM 32.5089 -82.8139 158° South 520 598 33,000  Level Jacksonville Center
Wed 04:55:03 AM 32.3772 -82.7450 156° South 515 593 33,000  Level Jacksonville Center
Wed 04:56:03 AM 32.2414 -82.6789 158° South 515 593 33,000  Level Jacksonville Center
Wed 04:57:03 AM 32.1097 -82.6131 157° South 515 593 33,000  Level Jacksonville Center
Wed 04:58:03 AM 31.9803 -82.5472 157° South 515 593 33,000  Level Jacksonville Center
Wed 04:59:03 AM 31.8464 -82.4817 157° South 515 593 33,000  Level Jacksonville Center
Wed 05:00:03 AM 31.7125 -82.4164 157° South 515 593 33,000  Level Jacksonville Center
Wed 05:01:03 AM 31.5828 -82.3511 157° South 515 593 33,000  Level Jacksonville Center
Wed 05:02:03 AM 31.4489 -82.2936 160° South 515 593 33,000 -50 Level Jacksonville Center
Wed 05:03:03 AM 31.3192 -82.2239 155° Southeast 515 593 32,900  Descending Jacksonville Center
Wed 05:04:03 AM 31.1892 -82.1494 154° Southeast 515 593 33,000  Climbing Jacksonville Center
Wed 05:05:03 AM 31.0594 -82.0778 155° Southeast 520 598 32,900 -50 Descending Jacksonville Center
Wed 05:06:03 AM 30.9294 -82.0061 155° Southeast 520 598 32,900  Level Jacksonville Center
Wed 05:07:03 AM 30.7994 -81.9325 154° Southeast 520 598 32,900  Level Jacksonville Center
Wed 05:08:03 AM 30.6736 -81.8611 154° Southeast 508 585 32,900  Level Jacksonville Center
Wed 05:09:03 AM 30.5289 -81.7783 154° Southeast 508 585 32,900  Level Jacksonville Center
Wed 05:10:03 AM 30.4156 -81.7122 153° Southeast 523 602 32,900  Level Jacksonville Center
Wed 05:11:03 AM 30.2686 -81.6347 156° South 523 602 32,900 50 Level Jacksonville Center
Wed 05:12:03 AM 30.1428 -81.5692 156° South 518 596 33,000 16 Climbing Jacksonville Center
Wed 05:17:12 AM 29.4829 -81.2095 155° Southeast 501 577 33,000  Level FlightAware ADS-B
Wed 05:18:13 AM 29.3551 -81.1410 155° Southeast 499 574 33,000  Level FlightAware ADS-B
Wed 05:19:30 AM 29.1888 -81.0682 161° South 498 573 33,000  Level FlightAware ADS-B
Wed 05:20:12 AM 29.1232 -81.0417 161° South 495 570 33,000  Level FlightAware ADS-B
Wed 05:20:50 AM 29.0146 -80.9984 161° South 495 570 33,000  Level FlightAware ADS-B
Wed 05:21:32 AM 28.9252 -80.9630 161° South 492 566 33,000  Level FlightAware ADS-B
Wed 05:22:13 AM 28.8368 -80.9281 161° South 494 568 33,000  Level FlightAware ADS-B
Wed 05:22:53 AM 28.7494 -80.8936 161° South 497 572 33,000  Level FlightAware ADS-B
Wed 05:23:34 AM 28.6620 -80.8591 161° South 498 573 33,000  Level FlightAware ADS-B
Wed 05:24:14 AM 28.5735 -80.8198 155° Southeast 498 573 33,000  Level FlightAware ADS-B
Wed 05:24:56 AM 28.4866 -80.7720 154° Southeast 499 574 33,000 -439 Level FlightAware ADS-B
Wed 05:25:36 AM 28.4040 -80.7263 154° Southeast 501 577 32,400 -1,050 Descending FlightAware ADS-B
Wed 05:26:16 AM 28.3242 -80.6824 154° Southeast 499 574 31,600 -1,139 Descending FlightAware ADS-B
Wed 05:26:55 AM 28.2384 -80.6352 154° Southeast 504 580 30,900 -1,111 Descending FlightAware ADS-B
Wed 05:27:37 AM 28.1514 -80.5875 154° Southeast 506 582 30,100 -1,098 Descending FlightAware ADS-B
Wed 05:28:17 AM 28.0668 -80.5414 154° Southeast 507 583 29,400 -1,747 Descending FlightAware ADS-B
Wed 05:28:56 AM 27.9838 -80.4961 154° Southeast 511 588 27,800 -2,658 Descending FlightAware ADS-B
Wed 05:29:36 AM 27.8985 -80.4494 154° Southeast 492 566 25,900 -2,889 Descending FlightAware ADS-B
Wed 05:30:17 AM 27.8195 -80.4067 154° Southeast 477 549 23,900 -3,038 Descending FlightAware ADS-B
Wed 05:30:55 AM 27.7476 -80.3675 154° Southeast 467 537 21,900 -3,259 Descending FlightAware ADS-B
Wed 05:31:38 AM 27.6607 -80.3210 154° Southeast 446 513 19,500 -3,512 Descending FlightAware ADS-B
Wed 05:32:17 AM 27.5873 -80.2813 154° Southeast 434 499 17,100 -3,300 Descending FlightAware ADS-B
Wed 05:32:58 AM 27.5159 -80.2425 154° Southeast 416 479 15,100 -3,117 Descending FlightAware ADS-B
Wed 05:33:34 AM 27.4539 -80.2090 154° Southeast 401 461 13,100 -1,832 Descending FlightAware ADS-B
Wed 05:35:45 AM 27.2443 -80.1008 154° Southeast 337 388 10,000 -1,238 Descending FlightAware ADS-B
Wed 05:37:46 AM 27.0867 -80.0399 162° South 286 329 7,900 -1,153 Descending FlightAware ADS-B
Wed 05:39:08 AM 26.9832 -80.0020 161° South 276 318 6,100 -1,230 Descending FlightAware ADS-B (RJTF)
Wed 05:40:27 AM 26.9017 -79.9719 161° South 270 311 4,600 -1,338 Descending Miami Center
Wed 05:41:27 AM 26.8269 -79.9444 162° South 270 311 3,000 -1,322 Descending Miami Center
Wed 05:42:25 AM 26.7528 -79.9333 172° South 264 304 2,000 -700 Descending Miami Center
Wed 05:43:27 AM 26.6922 -79.9336 180° South 213 245 1,600 -246 Descending Miami Center
Wed 05:44:27 AM 26.6761 -79.9853 251° West 179 206 1,500 -347 Descending Miami Center
Wed 05:45:28 AM 26.6794 -80.0289 275° West 142 163 900 -590 Descending Miami Center
Wed 05:46:29 AM 26.6811 -80.0639 273° West 126 145 300 -590 Descending Miami Center
Wed 05:48:00 AM 26.6667 -80.0833 110° East  Level FlightAware Approximate
Wed 05:55:00 AM 26.6832 -80.0956 110° East  Level Estimated

Login

Don't have an account? Register now (free) for customized features, flight alerts, and more!